Time;durP1;ratioP1;P1;durP2;ratioP2;P2;SDS_P1;SDS_P2;PMS_P1;PMS_P2;Temp;Humidity;BMP_temperature;BMP_pressure;BME280_temperature;BME280_humidity;BME280_pressure;Samples;Min_cycle;Max_cycle;Signal;HPM_P1;HPM_P2
2021/06/02 00:02:08;;;;;;;4.03;3.38;;;12.80;99.90;;;14.13;75.00;100488.13;4938236;29;20435;-82
2021/06/02 00:04:50;;;;;;;4.80;3.53;;;12.90;99.90;;;14.12;75.03;100477.31;4936201;29;20028;-84
2021/06/02 00:07:24;;;;;;;7.03;3.17;;;12.90;99.90;;;14.13;74.69;100479.72;4935195;29;20131;-84
2021/06/02 00:09:55;;;;;;;5.68;3.97;;;12.80;99.90;;;14.11;75.08;100482.13;4934939;29;20035;-84
2021/06/02 00:12:22;;;;;;;5.10;3.55;;;12.80;99.90;;;14.05;75.38;100485.66;4936308;29;20043;-81
2021/06/02 00:14:49;;;;;;;4.80;3.38;;;12.80;99.90;;;13.95;76.13;100477.94;4935451;29;20024;-86
2021/06/02 00:17:16;;;;;;;7.18;4.15;;;12.70;99.90;;;13.84;76.82;100474.22;4936043;29;20032;-86
2021/06/02 00:19:42;;;;;;;4.15;3.33;;;12.60;99.90;;;13.74;76.88;100467.28;4935816;29;20028;-84
2021/06/02 00:22:09;;;;;;;4.72;4.13;;;12.50;99.90;;;13.73;77.43;100480.50;4940263;29;20024;-84
2021/06/02 00:24:38;;;;;;;4.60;3.60;;;12.40;99.90;;;13.69;77.86;100476.03;4939838;29;20024;-87
2021/06/02 00:27:11;;;;;;;5.60;3.75;;;12.40;99.90;;;13.62;78.34;100464.72;4940047;29;20031;-86
2021/06/02 00:29:40;;;;;;;5.80;3.90;;;12.40;99.90;;;13.63;78.57;100472.75;4941307;29;20058;-85
2021/06/02 00:32:09;;;;;;;7.82;4.00;;;12.40;99.90;;;13.54;78.51;100468.66;4961499;28;20015;-83
2021/06/02 00:34:37;;;;;;;5.63;4.05;;;12.30;99.90;;;13.50;78.88;100476.19;4945507;28;20067;-85
2021/06/02 00:37:07;;;;;;;6.07;3.92;;;12.20;99.90;;;13.49;78.86;100478.19;4975897;23;20134;-81
2021/06/02 00:39:35;;;;;;;6.55;3.90;;;12.20;99.90;;;13.46;79.27;100472.53;4960445;29;20039;-82
2021/06/02 00:42:03;;;;;;;7.65;3.83;;;12.20;99.90;;;13.43;79.47;100471.31;4971236;28;20061;-82
2021/06/02 00:44:29;;;;;;;7.13;3.80;;;12.10;99.90;;;13.38;79.79;100463.25;4958892;28;20055;-82
2021/06/02 00:47:00;;;;;;;7.60;4.03;;;12.10;99.90;;;13.35;79.75;100466.81;4971228;28;20489;-83
2021/06/02 00:49:26;;;;;;;5.38;3.63;;;12.10;99.90;;;13.37;79.96;100470.03;4980397;28;20119;-82
2021/06/02 00:52:07;;;;;;;6.25;3.70;;;12.10;99.90;;;13.39;79.78;100475.28;4971714;28;20054;-83
2021/06/02 00:54:37;;;;;;;6.22;4.45;;;12.10;99.90;;;13.38;79.54;100465.22;4957969;28;20110;-80
2021/06/02 00:57:17;;;;;;;6.05;3.80;;;12.10;99.90;;;13.33;80.09;100460.75;4972850;28;20094;-81
2021/06/02 00:59:55;;;;;;;5.55;3.85;;;12.10;99.90;;;13.30;80.01;100457.91;4972006;28;20070;-80
2021/06/02 01:02:23;;;;;;;7.20;4.43;;;12.00;99.90;;;13.30;80.14;100453.09;4969242;28;20110;-80
2021/06/02 01:04:53;;;;;;;5.53;4.00;;;12.00;99.90;;;13.29;80.42;100459.09;4963464;28;20035;-79
2021/06/02 01:07:22;;;;;;;5.40;4.05;;;12.00;99.90;;;13.28;80.97;100457.47;4958923;28;20027;-80
2021/06/02 01:09:55;;;;;;;5.50;3.70;;;12.00;99.90;;;13.27;81.02;100462.28;4972561;28;20022;-81
2021/06/02 01:12:26;;;;;;;8.60;4.32;;;12.00;99.90;;;13.28;81.45;100458.31;4967555;28;20452;-79
2021/06/02 01:14:55;;;;;;;7.40;4.20;;;12.00;99.90;;;13.36;80.97;100456.38;4962600;28;20051;-80
2021/06/02 01:17:30;;;;;;;5.43;3.95;;;12.10;99.90;;;13.42;81.10;100457.69;4976109;28;20046;-80
2021/06/02 01:20:01;;;;;;;6.63;4.68;;;12.10;99.90;;;13.49;80.77;100461.34;4977746;28;20035;-79
2021/06/02 01:22:34;;;;;;;7.00;4.30;;;12.20;99.90;;;13.52;80.37;100462.59;4977842;28;20039;-80
2021/06/02 01:25:19;;;;;;;6.75;4.18;;;12.20;99.90;;;13.53;80.22;100472.63;4975749;28;20031;-80
2021/06/02 01:27:47;;;;;;;6.33;4.10;;;12.20;99.90;;;13.52;80.19;100466.22;4969262;28;20026;-80
2021/06/02 01:30:20;;;;;;;5.30;3.95;;;12.20;99.90;;;13.52;80.16;100465.38;4975966;28;20280;-81
2021/06/02 01:33:23;;;;;;;5.97;3.88;;;12.20;99.90;;;13.55;80.08;100464.66;4971448;28;20044;-81
2021/06/02 01:36:14;;;;;;;6.18;4.13;;;12.20;99.90;;;13.55;80.17;100473.84;4960323;28;20031;-79
2021/06/02 01:39:42;;;;;;;6.55;4.15;;;12.20;99.90;;;13.57;80.40;100467.88;4977709;28;20085;-80
2021/06/02 01:42:48;;;;;;;6.80;4.65;;;12.20;99.90;;;13.51;80.58;100475.03;4977907;28;20050;-80
2021/06/02 01:45:56;;;;;;;6.65;4.47;;;12.20;99.90;;;13.52;80.08;100471.81;4974764;28;20031;-81
2021/06/02 01:49:08;;;;;;;5.45;4.10;;;12.20;99.90;;;13.50;79.76;100476.19;4967562;28;20027;-81
2021/06/02 01:52:21;;;;;;;7.93;4.07;;;12.20;99.90;;;13.40;80.03;100474.06;4978251;28;20098;-82
2021/06/02 01:55:50;;;;;;;5.05;3.55;;;12.10;99.90;;;13.27;80.68;100462.28;4978701;28;20467;-82
2021/06/02 01:59:17;;;;;;;7.35;4.65;;;12.00;99.90;;;13.16;81.87;100462.13;4940182;29;20035;-81
2021/06/02 02:02:21;;;;;;;6.82;4.53;;;11.90;99.90;;;13.15;81.57;100466.16;4942613;28;20039;-80
2021/06/02 02:05:39;;;;;;;5.88;3.90;;;11.90;99.90;;;13.16;81.25;100469.75;4965480;28;20047;-81
2021/06/02 02:09:01;;;;;;;8.70;4.70;;;11.90;99.90;;;13.23;81.73;100477.47;4969864;28;20031;-83
2021/06/02 02:11:43;;;;;;;7.82;4.88;;;11.90;99.90;;;13.24;82.01;100476.25;4977543;28;20031;-80
2021/06/02 02:15:06;;;;;;;6.80;4.53;;;11.90;99.90;;;13.25;82.69;100473.09;4978218;28;20467;-83
2021/06/02 02:18:25;;;;;;;6.75;4.90;;;11.90;99.90;;;13.22;83.01;100467.44;4978804;28;20019;-80
2021/06/02 02:21:45;;;;;;;5.93;4.40;;;11.90;99.90;;;13.18;83.07;100456.16;4933166;28;20046;-82
2021/06/02 02:24:11;;;;;;;8.15;4.55;;;11.90;99.90;;;13.13;83.35;100465.69;4954806;29;20209;-80
2021/06/02 02:27:24;;;;;;;8.18;5.03;;;11.90;99.90;;;13.19;83.37;100458.59;4975974;28;20142;-81
2021/06/02 02:30:42;;;;;;;9.45;5.03;;;11.90;99.90;;;13.29;83.54;100467.53;4993321;28;20054;-82
2021/06/02 02:33:35;;;;;;;15.27;5.82;;;11.90;99.90;;;13.34;82.98;100456.78;4964607;28;20047;-79
2021/06/02 02:36:21;;;;;;;8.00;4.65;;;12.00;99.90;;;13.21;83.15;100452.59;4976901;28;20097;-82
2021/06/02 02:39:00;;;;;;;11.97;4.30;;;12.00;99.90;;;13.10;83.14;100455.25;4979013;28;20081;-80
2021/06/02 02:42:03;;;;;;;7.47;4.35;;;11.90;99.90;;;13.07;83.55;100450.38;4977722;28;20104;-82
2021/06/02 02:45:00;;;;;;;7.32;4.75;;;11.80;99.90;;;13.00;83.42;100455.88;4957819;28;20046;-81
2021/06/02 02:47:55;;;;;;;6.00;4.32;;;11.70;99.90;;;12.93;83.36;100450.19;4940439;29;20126;-83
2021/06/02 02:51:26;;;;;;;5.75;4.50;;;11.70;99.90;;;12.86;83.37;100455.69;4977189;28;20106;-85
2021/06/02 02:54:34;;;;;;;12.73;5.25;;;11.60;99.90;;;12.87;83.32;100453.69;4949447;28;20047;-82
2021/06/02 02:57:28;;;;;;;8.13;4.40;;;11.60;99.90;;;12.81;83.50;100447.59;4962463;28;20031;-81
2021/06/02 03:00:47;;;;;;;7.50;4.13;;;11.60;99.90;;;12.71;83.82;100456.66;4975186;28;20176;-80
2021/06/02 03:03:31;;;;;;;5.88;4.60;;;11.50;99.90;;;12.63;83.84;100461.34;4950975;29;20094;-86
2021/06/02 03:06:13;;;;;;;7.35;4.32;;;11.40;99.90;;;12.58;84.25;100463.66;4976886;28;20053;-84
2021/06/02 03:09:02;;;;;;;9.48;4.72;;;11.30;99.90;;;12.52;84.71;100465.16;4980117;28;20038;-86
2021/06/02 03:12:01;;;;;;;8.70;4.95;;;11.30;99.90;;;12.49;84.09;100463.13;4939988;28;20068;-84
2021/06/02 03:15:18;;;;;;;8.77;4.97;;;11.20;99.90;;;12.47;84.02;100457.88;4941527;29;20068;-80
2021/06/02 03:17:54;;;;;;;8.25;4.97;;;11.20;99.90;;;12.45;84.07;100451.84;4941927;28;20047;-80
2021/06/02 03:20:27;;;;;;;6.32;4.32;;;11.20;99.90;;;12.44;84.05;100452.22;4976700;28;20034;-81
2021/06/02 03:23:12;;;;;;;7.25;4.80;;;11.20;99.90;;;12.42;84.16;100447.00;4977920;28;20026;-79
2021/06/02 03:26:17;;;;;;;7.03;4.55;;;11.20;99.90;;;12.45;84.39;100449.06;4977746;28;20077;-79
2021/06/02 03:29:13;;;;;;;8.02;5.00;;;11.20;99.90;;;12.43;83.88;100443.00;4973757;28;20046;-83
2021/06/02 03:32:24;;;;;;;8.95;4.78;;;11.10;99.90;;;12.42;83.09;100438.59;4976857;28;20042;-85
2021/06/02 03:36:02;;;;;;;5.68;4.03;;;11.20;99.90;;;12.48;83.00;100451.09;4978783;28;20467;-85
2021/06/02 03:39:09;;;;;;;8.15;5.00;;;11.20;99.90;;;12.48;83.06;100453.09;4919109;29;20036;-84
2021/06/02 03:42:13;;;;;;;8.02;4.20;;;11.20;99.90;;;12.52;82.57;100462.38;4920998;29;20048;-84
2021/06/02 03:45:07;;;;;;;7.50;4.22;;;11.20;99.90;;;12.51;82.49;100458.75;4977024;28;20046;-81
2021/06/02 03:48:17;;;;;;;11.68;4.90;;;11.20;99.90;;;12.46;82.37;100461.03;4978417;28;20022;-82
2021/06/02 03:51:01;;;;;;;9.50;4.78;;;11.20;99.90;;;12.38;82.64;100450.91;4977724;28;20031;-83
2021/06/02 03:54:00;;;;;;;6.63;4.05;;;11.10;99.90;;;12.37;83.10;100457.69;4974336;28;20029;-81
2021/06/02 03:57:14;;;;;;;9.05;4.65;;;11.10;99.90;;;12.36;83.56;100462.47;4961811;28;20037;-80
2021/06/02 04:00:02;;;;;;;6.00;4.80;;;11.10;99.90;;;12.38;82.88;100468.53;4969476;28;20027;-79
2021/06/02 04:03:03;;;;;;;7.90;4.68;;;11.10;99.90;;;12.38;82.43;100465.72;4966665;28;20122;-81
2021/06/02 04:05:59;;;;;;;8.57;4.65;;;11.10;99.90;;;12.35;82.79;100474.06;4973390;28;20419;-81
2021/06/02 04:08:58;;;;;;;8.97;4.07;;;11.10;99.90;;;12.31;83.24;100474.00;4975641;28;20035;-86
2021/06/02 04:12:34;;;;;;;5.45;4.20;;;11.00;99.90;;;12.23;83.33;100472.28;4947537;28;20122;-82
2021/06/02 04:15:06;;;;;;;5.57;4.32;;;11.00;99.90;;;12.19;83.55;100460.22;4922397;28;20035;-83
2021/06/02 04:17:34;;;;;;;6.97;4.88;;;10.90;99.90;;;12.24;83.17;100470.28;4983619;28;20026;-81
2021/06/02 04:20:06;;;;;;;8.48;4.97;;;10.90;99.90;;;12.26;83.18;100465.94;4984151;28;20054;-83
2021/06/02 04:22:40;;;;;;;8.68;4.30;;;11.00;99.90;;;12.30;82.90;100469.59;4973528;28;20094;-81
2021/06/02 04:25:07;;;;;;;6.43;4.03;;;11.00;99.90;;;12.32;82.83;100467.25;4970726;28;20023;-87
2021/06/02 04:27:38;;;;;;;10.30;5.13;;;11.00;99.90;;;12.36;82.79;100481.31;4976749;28;20390;-81
2021/06/02 04:30:07;;;;;;;6.22;4.45;;;11.00;99.90;;;12.41;81.91;100475.38;4980437;28;20055;-82
2021/06/02 04:32:47;;;;;;;9.55;4.40;;;11.10;99.90;;;12.44;82.38;100481.03;4981269;28;20034;-81
2021/06/02 04:35:18;;;;;;;12.93;5.25;;;11.10;99.90;;;12.51;82.69;100480.34;4976126;28;20077;-85
2021/06/02 04:37:46;;;;;;;16.08;5.57;;;11.20;99.90;;;12.55;82.34;100479.19;4971190;28;20038;-83
2021/06/02 04:40:13;;;;;;;8.40;4.68;;;11.30;99.90;;;12.56;83.01;100477.22;4992786;28;20035;-85
2021/06/02 04:42:41;;;;;;;5.60;3.67;;;11.20;99.90;;;12.53;83.13;100475.97;4991574;28;20027;-84
2021/06/02 04:45:18;;;;;;;10.23;4.80;;;11.20;99.90;;;12.53;83.54;100480.78;5003558;28;20154;-84
2021/06/02 04:47:47;;;;;;;10.77;5.18;;;11.20;99.90;;;12.53;83.28;100475.16;4978922;28;20097;-81
2021/06/02 04:50:46;;;;;;;11.48;5.35;;;11.20;99.90;;;12.63;83.07;100482.94;4960083;28;20027;-81
2021/06/02 04:53:54;;;;;;;9.40;5.38;;;11.20;99.90;;;12.79;82.10;100492.00;4978079;28;20026;-81
2021/06/02 04:57:10;;;;;;;10.98;5.07;;;11.40;99.90;;;13.05;81.89;100494.81;4978237;28;20027;-81
2021/06/02 05:00:45;;;;;;;7.80;4.70;;;11.60;99.90;;;13.40;80.82;100488.09;4967068;28;20066;-83
2021/06/02 05:04:25;;;;;;;6.40;4.35;;;11.90;99.90;;;14.03;78.94;100493.66;4918177;29;20043;-86
2021/06/02 05:07:41;;;;;;;6.78;4.60;;;12.40;99.90;;;14.90;76.88;100495.66;4964996;28;20023;-86
2021/06/02 05:10:56;;;;;;;7.03;4.93;;;13.00;99.90;;;15.55;73.65;100498.47;4980037;28;20027;-77
2021/06/02 05:14:15;;;;;;;7.20;4.93;;;13.70;99.90;;;16.24;71.15;100495.47;4986639;28;20049;-84
2021/06/02 05:17:29;;;;;;;6.85;4.18;;;14.30;99.90;;;16.84;69.55;100490.69;4943146;29;20028;-86
2021/06/02 05:24:35;;;;;;;5.80;3.90;;;15.40;99.90;;;18.10;64.69;100507.66;4967345;28;20043;-82
2021/06/02 05:27:41;;;;;;;5.60;4.05;;;16.00;99.90;;;18.59;63.17;100502.91;4973001;28;20077;-82
2021/06/02 05:30:47;;;;;;;6.38;3.60;;;16.40;99.90;;;18.86;60.91;100507.50;4981337;28;20030;-84
2021/06/02 05:33:51;;;;;;;6.70;3.95;;;16.70;99.90;;;19.20;59.28;100507.56;4980414;28;20035;-87
2021/06/02 05:36:47;;;;;;;7.25;3.20;;;17.00;99.90;;;19.48;57.83;100503.69;4979872;28;20027;-83
2021/06/02 05:40:01;;;;;;;6.68;3.50;;;17.40;99.90;;;19.78;57.49;100500.84;4980573;28;20019;-87
2021/06/02 05:43:04;;;;;;;8.80;3.10;;;17.70;99.90;;;20.11;57.16;100493.53;4981092;28;20041;-85
2021/06/02 05:46:19;;;;;;;8.48;4.43;;;18.00;99.90;;;20.40;55.77;100500.44;4980642;28;20023;-85
2021/06/02 05:49:25;;;;;;;12.77;4.25;;;18.30;99.90;;;20.64;53.32;100504.13;4980032;28;20382;-85
2021/06/02 05:52:29;;;;;;;8.40;3.38;;;18.50;99.90;;;20.89;52.70;100495.16;4981626;28;20035;-83
2021/06/02 05:55:51;;;;;;;6.65;3.33;;;18.80;99.90;;;21.20;52.07;100499.50;4983977;28;20031;-83
2021/06/02 05:59:10;;;;;;;7.43;3.72;;;19.00;99.90;;;21.50;50.64;100502.16;4977223;28;20042;-82
2021/06/02 06:02:26;;;;;;;6.80;3.25;;;19.30;99.90;;;21.82;48.89;100506.38;4964350;28;20035;-82
2021/06/02 06:05:29;;;;;;;7.40;4.22;;;19.60;99.90;;;22.13;48.08;100498.41;4942237;29;20043;-86
2021/06/02 06:08:44;;;;;;;7.07;3.30;;;19.90;99.90;;;22.48;47.52;100492.69;4962877;28;20034;-87
2021/06/02 06:12:12;;;;;;;5.88;3.42;;;20.20;99.90;;;22.72;47.57;100489.72;4965325;28;20023;-83
2021/06/02 06:15:18;;;;;;;4.68;2.72;;;20.50;99.90;;;23.02;45.92;100498.69;4982495;28;20023;-83
2021/06/02 06:18:20;;;;;;;5.47;3.20;;;20.80;95.60;;;23.20;46.47;100498.22;4942886;29;20028;-81
2021/06/02 06:21:44;;;;;;;5.78;3.78;;;20.90;99.90;;;23.65;45.87;100494.56;4944539;29;20039;-82
2021/06/02 06:24:23;;;;;;;5.75;2.80;;;21.20;98.30;;;23.95;44.72;100494.09;4948611;28;20093;-81
2021/06/02 06:27:07;;;;;;;7.13;2.78;;;21.60;94.70;;;24.14;43.30;100496.75;4976164;28;20539;-81
2021/06/02 06:30:19;;;;;;;7.57;3.22;;;21.80;88.10;;;24.52;43.79;100495.97;4978936;28;20185;-82
2021/06/02 06:32:53;;;;;;;7.90;2.95;;;22.10;89.80;;;24.85;41.95;100493.69;4981649;28;20065;-84
2021/06/02 06:35:22;;;;;;;4.53;2.85;;;22.40;81.50;;;25.03;41.65;100485.31;4978122;28;20039;-83
2021/06/02 06:37:55;;;;;;;5.57;3.00;;;22.60;78.50;;;25.23;40.29;100487.88;4985014;28;20030;-83
2021/06/02 06:40:27;;;;;;;5.15;3.00;;;22.90;74.70;;;25.68;39.67;100488.28;4978387;28;20023;-85
2021/06/02 06:43:00;;;;;;;8.05;2.88;;;23.20;71.60;;;25.64;37.49;100494.13;4986567;28;20035;-81
2021/06/02 06:45:33;;;;;;;5.78;2.60;;;23.40;65.70;;;26.04;38.11;100488.50;4958732;28;20043;-84
2021/06/02 06:48:08;;;;;;;6.55;2.80;;;23.60;66.90;;;26.22;37.59;100490.72;4939034;29;20058;-86
2021/06/02 06:50:35;;;;;;;4.80;2.60;;;23.80;64.40;;;26.10;37.64;100488.72;4939725;28;20032;-85
2021/06/02 06:53:07;;;;;;;3.97;2.83;;;23.70;64.80;;;25.83;38.67;100488.53;4949749;28;20069;-83
2021/06/02 06:55:35;;;;;;;3.97;2.47;;;23.50;66.30;;;25.78;38.08;100481.38;4989049;28;20095;-84
2021/06/02 06:58:08;;;;;;;3.63;2.63;;;23.50;65.10;;;26.32;38.41;100482.97;4963450;28;20105;-83
2021/06/02 07:00:36;;;;;;;6.47;2.70;;;23.80;66.20;;;26.91;36.56;100481.75;4975846;28;20094;-81
2021/06/02 07:03:03;;;;;;;5.10;2.70;;;24.30;63.40;;;27.38;34.60;100481.34;4986010;28;20050;-83
2021/06/02 07:05:30;;;;;;;3.85;2.60;;;24.80;59.20;;;27.36;32.85;100478.13;4977153;28;20031;-84
2021/06/02 07:07:57;;;;;;;4.65;2.75;;;24.90;55.40;;;27.83;33.00;100483.41;4958174;29;20027;-83
2021/06/02 07:10:23;;;;;;;5.13;2.40;;;25.20;55.90;;;28.10;33.98;100478.41;4973837;28;20110;-83
2021/06/02 07:12:50;;;;;;;2.92;2.20;;;25.50;57.60;;;28.48;32.00;100486.41;4977756;28;20022;-82
2021/06/02 07:15:18;;;;;;;5.45;2.40;;;25.80;54.60;;;28.40;31.97;100484.38;4980221;28;20113;-84
2021/06/02 07:17:48;;;;;;;3.15;2.30;;;25.90;53.70;;;28.87;32.13;100477.94;4980835;28;20027;-82
2021/06/02 07:20:42;;;;;;;3.28;2.35;;;26.20;54.20;;;29.29;30.90;100485.19;4980355;28;20118;-83
2021/06/02 07:23:08;;;;;;;5.50;2.50;;;26.50;52.80;;;29.44;32.84;100487.31;4978157;28;20046;-84
2021/06/02 07:25:35;;;;;;;3.63;2.13;;;26.70;55.80;;;29.52;30.19;100488.53;4972641;28;20030;-85
2021/06/02 07:28:09;;;;;;;5.93;2.50;;;26.80;52.10;;;29.26;30.72;100489.03;4940651;29;20028;-87
2021/06/02 07:30:36;;;;;;;6.47;2.20;;;26.70;51.30;;;29.78;31.14;100487.47;4938853;29;20450;-85
2021/06/02 07:33:04;;;;;;;3.13;2.30;;;26.90;52.80;;;30.17;30.24;100481.66;4948930;28;20074;-85
2021/06/02 07:35:31;;;;;;;4.53;2.40;;;27.30;51.90;;;30.46;29.15;100475.91;4967563;28;20023;-86
2021/06/02 07:37:56;;;;;;;3.25;2.40;;;27.50;49.10;;;30.58;26.61;100477.66;4962312;29;20483;-85
2021/06/02 07:40:23;;;;;;;2.97;2.22;;;27.70;46.20;;;30.54;26.70;100482.81;4967353;28;20058;-82
2021/06/02 07:42:50;;;;;;;5.05;1.98;;;27.60;46.40;;;30.86;27.70;100480.19;4975982;28;20101;-85
2021/06/02 07:45:18;;;;;;;3.50;2.30;;;27.90;48.10;;;31.19;27.84;100474.88;4967043;28;20399;-86
2021/06/02 07:47:44;;;;;;;5.53;2.03;;;28.20;48.00;;;31.17;26.81;100477.47;4964784;28;20011;-82
2021/06/02 07:50:12;;;;;;;2.83;2.35;;;28.30;46.20;;;31.28;24.55;100472.63;4967678;29;20074;-84
2021/06/02 07:52:39;;;;;;;4.22;2.13;;;28.40;42.50;;;31.08;24.19;100472.63;4961725;28;20023;-82
2021/06/02 07:55:05;;;;;;;3.05;2.00;;;28.40;42.60;;;30.64;25.15;100466.19;4980608;28;20118;-84
2021/06/02 07:57:32;;;;;;;3.55;2.20;;;28.20;42.80;;;31.25;26.38;100476.53;4981242;28;20027;-82
2021/06/02 07:59:59;;;;;;;4.90;2.15;;;28.40;45.40;;;31.60;25.14;100475.66;4962763;28;20128;-84
2021/06/02 08:02:25;;;;;;;4.55;2.08;;;28.60;44.20;;;31.39;24.52;100483.53;4962958;28;20023;-80
2021/06/02 08:04:51;;;;;;;3.22;2.00;;;28.80;42.90;;;31.53;25.54;100474.00;4971838;28;20019;-83
2021/06/02 08:07:16;;;;;;;3.72;1.60;;;28.80;44.00;;;32.11;24.68;100481.47;4974385;28;20031;-84
2021/06/02 08:09:43;;;;;;;5.97;2.13;;;29.10;42.90;;;31.47;24.99;100481.78;4965380;28;20022;-86
2021/06/02 08:12:11;;;;;;;2.03;1.77;;;29.00;42.70;;;31.81;24.37;100483.78;4978781;28;20113;-84
2021/06/02 08:14:38;;;;;;;2.53;2.00;;;29.10;42.20;;;32.31;23.14;100481.38;4979679;28;20030;-84
2021/06/02 08:17:04;;;;;;;2.15;1.95;;;29.40;40.60;;;32.30;24.60;100485.56;4981164;28;20398;-84
2021/06/02 08:19:30;;;;;;;3.20;1.90;;;29.50;42.70;;;32.28;24.34;100487.41;4977732;28;20487;-85
2021/06/02 08:21:56;;;;;;;5.95;2.22;;;29.40;42.20;;;32.39;25.39;100487.50;4979170;28;20082;-86
2021/06/02 08:24:22;;;;;;;1.98;1.73;;;29.60;43.80;;;32.61;24.31;100484.81;4974819;28;20027;-84
2021/06/02 08:26:48;;;;;;;3.05;1.95;;;29.70;42.00;;;32.82;24.97;100482.56;4972987;28;20098;-84
2021/06/02 08:29:14;;;;;;;2.72;1.90;;;29.90;42.80;;;32.29;23.66;100486.91;4978866;28;20031;-84
2021/06/02 08:31:40;;;;;;;3.55;2.20;;;29.80;42.30;;;32.09;24.14;100478.31;4977682;28;20035;-85
2021/06/02 08:34:06;;;;;;;4.93;1.85;;;29.50;41.40;;;32.50;22.85;100486.78;4978784;28;20039;-84
2021/06/02 08:36:32;;;;;;;6.07;2.05;;;29.60;40.30;;;32.61;23.36;100481.13;4978946;28;20459;-84
2021/06/02 08:38:58;;;;;;;4.50;2.20;;;29.70;41.80;;;32.79;23.87;100487.28;4980255;28;20137;-86
2021/06/02 08:41:24;;;;;;;2.88;1.92;;;29.70;41.70;;;32.72;24.37;100484.88;4981544;28;20063;-84
2021/06/02 08:43:50;;;;;;;3.78;1.85;;;29.80;42.20;;;33.25;22.75;100477.56;4983059;28;20117;-84
2021/06/02 08:46:18;;;;;;;3.78;1.70;;;30.10;40.40;;;32.79;23.35;100484.41;4976191;28;20038;-85
2021/06/02 08:48:49;;;;;;;2.25;1.60;;;30.00;40.90;;;32.54;22.74;100482.34;4967098;29;20042;-82
2021/06/02 08:51:18;;;;;;;3.20;1.88;;;30.00;39.20;;;32.95;23.36;100482.91;4968721;29;20098;-84
2021/06/02 08:53:48;;;;;;;4.78;1.75;;;30.10;40.90;;;33.37;24.46;100473.41;4972347;28;20094;-83
2021/06/02 08:56:15;;;;;;;3.55;1.95;;;30.40;42.60;;;33.14;22.14;100474.63;4977644;28;20091;-83
2021/06/02 08:58:41;;;;;;;5.00;2.03;;;30.40;38.90;;;33.32;23.28;100480.78;4979352;28;20063;-83
2021/06/02 09:01:08;;;;;;;5.25;2.10;;;30.40;41.50;;;32.37;22.99;100473.53;4989901;28;20045;-82
2021/06/02 09:03:34;;;;;;;1.83;1.65;;;30.20;38.30;;;32.77;23.50;100471.75;4985080;28;20090;-86
2021/06/02 09:06:07;;;;;;;1.67;1.50;;;30.10;40.50;;;33.09;21.35;100475.38;4976563;28;20034;-83
2021/06/02 09:08:39;;;;;;;2.70;1.75;;;30.30;37.90;;;33.07;21.75;100466.41;4987934;28;20093;-84
2021/06/02 09:11:17;;;;;;;5.00;1.90;;;30.40;39.20;;;32.96;21.52;100470.03;5001618;28;20034;-83
2021/06/02 09:13:45;;;;;;;5.78;1.83;;;30.20;38.00;;;32.84;21.75;100469.19;4986605;28;20058;-81
2021/06/02 09:16:28;;;;;;;2.75;1.92;;;30.20;37.90;;;32.99;21.09;100469.00;4987589;28;20094;-83
2021/06/02 09:19:04;;;;;;;2.60;1.67;;;30.20;37.40;;;32.72;19.98;100464.63;4982590;28;20030;-83
2021/06/02 09:21:34;;;;;;;2.50;1.60;;;30.10;35.50;;;32.67;20.51;100461.69;4980939;28;20387;-86
2021/06/02 09:24:00;;;;;;;3.67;2.05;;;30.10;36.00;;;32.28;21.48;100464.28;4980025;28;20494;-88
2021/06/02 09:26:30;;;;;;;4.28;1.83;;;30.00;36.80;;;32.76;22.17;100453.63;4981105;28;20045;-82
2021/06/02 09:29:11;;;;;;;3.80;1.73;;;30.20;38.40;;;33.33;21.60;100464.97;4979401;28;20475;-85
2021/06/02 09:31:44;;;;;;;2.17;1.73;;;30.40;38.30;;;33.66;20.38;100464.31;4979275;28;20046;-81
2021/06/02 09:34:27;;;;;;;3.05;2.03;;;30.70;36.50;;;33.88;21.55;100461.47;4978687;28;20034;-84
2021/06/02 09:37:03;;;;;;;3.22;1.90;;;30.80;37.80;;;34.03;20.79;100452.53;4979867;28;20030;-86
2021/06/02 09:39:38;;;;;;;3.08;2.03;;;31.00;37.40;;;34.19;22.82;100457.59;4978378;28;20034;-83
2021/06/02 09:42:28;;;;;;;3.47;2.13;;;31.20;40.10;;;33.92;20.27;100462.00;4980407;28;20038;-84
2021/06/02 09:45:22;;;;;;;2.60;1.90;;;31.20;36.10;;;33.12;21.84;100465.66;4971370;28;20043;-83
2021/06/02 09:47:49;;;;;;;2.22;1.85;;;30.90;37.30;;;33.27;21.33;100469.16;4939688;28;20075;-84
2021/06/02 09:50:36;;;;;;;3.92;1.77;;;30.80;37.30;;;33.09;21.61;100466.72;4940694;29;20035;-86
2021/06/02 09:53:19;;;;;;;5.97;1.95;;;30.80;37.70;;;32.99;21.86;100466.09;4950379;28;20027;-82
2021/06/02 09:55:45;;;;;;;3.95;1.98;;;30.60;37.30;;;32.66;22.67;100454.31;4968661;28;20027;-82
2021/06/02 09:58:15;;;;;;;4.35;1.90;;;30.50;38.50;;;32.25;22.37;100462.41;4973686;28;20638;-82
2021/06/02 10:00:55;;;;;;;5.30;2.40;;;30.40;38.10;;;31.57;23.03;100459.34;4979981;28;20055;-81
2021/06/02 10:03:27;;;;;;;4.22;2.15;;;30.00;37.70;;;31.53;23.67;100459.56;4982410;28;20027;-81
2021/06/02 10:05:54;;;;;;;4.32;2.30;;;29.80;38.60;;;32.52;22.81;100463.94;4974449;28;20050;-80
2021/06/02 10:08:32;;;;;;;3.30;2.10;;;30.00;39.40;;;32.77;21.54;100457.31;4980349;28;20026;-82
2021/06/02 10:11:17;;;;;;;3.05;1.70;;;30.00;37.80;;;31.98;22.79;100455.03;4980277;28;20034;-81
2021/06/02 10:13:49;;;;;;;3.05;2.00;;;29.90;38.20;;;32.69;21.97;100456.19;4983990;28;20118;-82
2021/06/02 10:16:45;;;;;;;3.03;1.88;;;30.10;37.80;;;32.73;22.67;100448.88;4983928;28;20399;-80
2021/06/02 10:19:11;;;;;;;3.05;2.22;;;30.20;38.90;;;33.10;22.85;100448.84;4979243;28;20034;-83
2021/06/02 10:21:52;;;;;;;5.10;1.90;;;30.40;39.20;;;33.10;21.60;100445.16;4977639;28;20029;-82
2021/06/02 10:24:19;;;;;;;4.25;1.85;;;30.50;37.80;;;33.70;22.21;100446.69;4972211;28;20065;-82
2021/06/02 10:26:47;;;;;;;4.28;2.00;;;30.80;38.40;;;33.52;23.04;100453.75;4974592;28;20043;-82
2021/06/02 10:29:13;;;;;;;5.97;2.10;;;30.90;39.60;;;33.48;22.52;100449.50;4982305;28;20125;-85
2021/06/02 10:31:39;;;;;;;5.88;2.33;;;31.00;38.60;;;33.20;21.44;100446.50;4977972;28;20399;-83
2021/06/02 10:34:05;;;;;;;3.08;2.15;;;31.00;36.60;;;32.52;22.10;100447.41;4979161;28;20034;-83
2021/06/02 10:36:31;;;;;;;6.03;2.65;;;30.80;36.60;;;31.45;22.54;100452.63;4976306;28;20034;-82
2021/06/02 10:39:07;;;;;;;5.13;2.03;;;30.30;36.80;;;32.16;23.70;100439.50;4962728;28;20134;-82
2021/06/02 10:41:49;;;;;;;4.85;2.38;;;30.10;39.50;;;31.93;23.13;100441.34;4956881;29;20046;-81
2021/06/02 10:44:26;;;;;;;7.57;2.33;;;30.40;38.00;;;30.62;26.01;100437.91;4960369;29;20407;-83
2021/06/02 10:46:54;;;;;;;9.10;2.50;;;29.60;40.70;;;30.78;26.96;100436.53;4959799;28;20042;-83
2021/06/02 10:49:36;;;;;;;4.00;2.33;;;29.40;42.20;;;31.24;25.68;100445.31;4960927;29;20550;-84
2021/06/02 10:52:04;;;;;;;4.07;2.05;;;29.60;41.10;;;31.95;24.74;100443.75;4959913;29;20071;-86
2021/06/02 10:54:41;;;;;;;3.55;2.38;;;29.80;41.50;;;32.79;22.10;100443.91;4970643;29;20035;-83
2021/06/02 10:57:13;;;;;;;2.97;2.08;;;30.20;37.90;;;33.36;22.09;100437.09;4961005;28;20395;-82
2021/06/02 10:59:46;;;;;;;3.10;1.80;;;30.50;38.80;;;33.94;21.73;100438.28;4961695;29;20079;-84
2021/06/02 11:02:17;;;;;;;3.97;2.00;;;31.00;38.30;;;33.88;20.60;100437.50;4960978;29;20400;-85
2021/06/02 11:04:55;;;;;;;3.80;2.13;;;31.20;36.50;;;33.03;20.94;100431.16;4961043;28;20046;-84
2021/06/02 11:07:26;;;;;;;2.53;1.83;;;31.00;36.00;;;33.23;22.71;100433.91;4960571;28;20039;-83
2021/06/02 11:10:07;;;;;;;3.33;1.88;;;30.90;39.60;;;33.95;22.60;100427.50;4968857;28;20090;-85
2021/06/02 11:12:45;;;;;;;5.85;2.28;;;31.20;38.80;;;34.47;21.58;100436.47;4973289;28;20127;-84
2021/06/02 11:15:48;;;;;;;3.60;1.90;;;31.60;38.10;;;34.29;19.36;100429.13;4978986;28;20054;-85
2021/06/02 11:18:22;;;;;;;2.05;1.70;;;31.80;34.80;;;34.42;20.55;100435.16;4978100;28;20487;-85
2021/06/02 11:21:01;;;;;;;2.88;1.98;;;31.80;35.90;;;34.12;20.84;100428.31;4980026;28;20035;-86
2021/06/02 11:23:36;;;;;;;2.58;1.90;;;31.80;35.60;;;33.34;20.91;100428.94;4981395;28;20030;-86